createdAt,value
2023-04-19T00:02:16.546Z,73.91
2023-04-19T00:03:30.794Z,73.91
2023-04-19T00:04:18.088Z,74.02
2023-04-19T00:05:17.734Z,74.11
2023-04-19T00:06:17.736Z,74.22
2023-04-19T00:07:17.788Z,74.22
2023-04-19T00:08:17.930Z,74.08
2023-04-19T00:09:18.005Z,74.08
2023-04-19T00:10:26.722Z,73.98
2023-04-19T00:11:18.162Z,73.98
2023-04-19T00:12:18.209Z,73.98
2023-04-19T00:13:18.385Z,74.08
2023-04-19T00:16:18.713Z,74.02
2023-04-19T00:20:36.429Z,74.46
2023-04-19T00:23:27.458Z,74.56
2023-04-19T00:25:57.008Z,74.77
2023-04-19T00:26:58.072Z,74.66
2023-04-19T00:27:58.194Z,74.77
2023-04-19T00:28:58.266Z,74.77
2023-04-19T00:32:35.126Z,74.77
2023-04-19T00:33:36.093Z,74.77
2023-04-19T00:36:45.154Z,74.87
2023-04-19T00:37:46.211Z,74.97
2023-04-19T00:38:46.301Z,75.07
2023-04-19T00:42:06.840Z,74.87
2023-04-19T00:45:04.679Z,74.97
2023-04-19T00:47:49.774Z,75.11
2023-04-19T00:48:50.743Z,75.21
2023-04-19T00:51:53.300Z,75.21
2023-04-19T00:55:06.670Z,75.31
2023-04-19T00:58:55.989Z,75.42
2023-04-19T00:59:56.966Z,75.31
2023-04-19T01:00:57.256Z,75.38
2023-04-19T01:01:57.203Z,75.38
2023-04-19T01:05:26.682Z,75.18
2023-04-19T01:08:33.813Z,75.18
2023-04-19T01:09:34.818Z,75.18
2023-04-19T01:10:46.443Z,75.18
2023-04-19T01:11:34.882Z,75.07
2023-04-19T01:14:41.385Z,74.97
2023-04-19T01:15:42.488Z,74.97
2023-04-19T01:16:42.517Z,74.97
2023-04-19T01:17:42.672Z,74.97
2023-04-19T01:18:42.726Z,74.87
2023-04-19T01:19:42.766Z,74.77
2023-04-19T01:22:28.739Z,74.53
2023-04-19T01:23:29.750Z,74.56
2023-04-19T01:26:39.478Z,74.56
2023-04-19T01:27:40.510Z,74.56
2023-04-19T01:28:40.711Z,74.56
2023-04-19T01:29:40.667Z,74.56
2023-04-19T01:30:41.372Z,74.53
2023-04-19T01:33:50.915Z,74.32
2023-04-19T01:34:23.991Z,74.32
2023-04-19T01:35:24.028Z,74.32
2023-04-19T01:36:24.176Z,74.43
2023-04-19T01:37:24.210Z,74.32
2023-04-19T01:39:58.581Z,74.32
2023-04-19T01:40:59.674Z,74.32
2023-04-19T01:41:59.754Z,74.43
2023-04-19T01:42:59.768Z,74.53
2023-04-19T01:47:31.097Z,74.77
2023-04-19T01:48:32.079Z,74.77
2023-04-19T01:49:32.189Z,74.87
2023-04-19T01:50:32.234Z,74.87
2023-04-19T01:51:32.373Z,74.84
2023-04-19T01:52:46.062Z,74.84
2023-04-19T01:53:32.485Z,74.73
2023-04-19T01:54:32.560Z,74.73
2023-04-19T01:57:33.944Z,74.73
2023-04-19T01:58:45.216Z,74.84
2023-04-19T01:59:35.218Z,74.94
2023-04-19T02:00:35.229Z,74.97
2023-04-19T02:03:39.401Z,75.07
2023-04-19T02:04:40.388Z,75.07
2023-04-19T02:05:54.104Z,75.18
2023-04-19T02:09:02.321Z,75.28
2023-04-19T02:10:03.303Z,75.28
2023-04-19T02:11:03.379Z,75.38
2023-04-19T02:12:03.478Z,75.38
2023-04-19T02:13:03.612Z,75.28
2023-04-19T02:14:03.644Z,75.24
2023-04-19T02:15:12.814Z,75.04
2023-04-19T02:16:03.807Z,75.04
2023-04-19T02:17:03.836Z,75.04
2023-04-19T02:18:03.984Z,75.14
2023-04-19T02:19:03.976Z,75.04
2023-04-19T02:21:39.520Z,74.94
2023-04-19T02:22:40.612Z,74.84
2023-04-19T02:23:40.689Z,74.94
2023-04-19T02:24:40.713Z,74.94
2023-04-19T02:25:40.909Z,74.94
2023-04-19T02:26:55.617Z,74.84
2023-04-19T02:27:40.967Z,74.84
2023-04-19T02:28:41.134Z,74.84
2023-04-19T02:29:41.160Z,74.84
2023-04-19T02:30:41.313Z,74.73
2023-04-19T02:31:41.367Z,74.63
2023-04-19T02:32:41.453Z,74.63
2023-04-19T02:33:41.510Z,74.63
2023-04-19T02:36:51.500Z,74.53
2023-04-19T02:37:52.573Z,74.53
2023-04-19T02:40:58.214Z,74.63
2023-04-19T02:41:59.322Z,74.77
2023-04-19T02:42:59.427Z,74.73
2023-04-19T02:43:59.426Z,74.73
2023-04-19T02:44:59.505Z,74.73
2023-04-19T02:45:59.607Z,74.63
2023-04-19T02:48:53.497Z,74.53
2023-04-19T02:49:54.549Z,74.56
2023-04-19T02:51:10.257Z,74.66
2023-04-19T02:51:54.646Z,74.66
2023-04-19T02:54:19.996Z,74.77
2023-04-19T02:55:21.033Z,74.77
2023-04-19T02:56:21.086Z,74.87
2023-04-19T02:57:21.246Z,74.87
2023-04-19T02:58:21.302Z,74.87
2023-04-19T02:59:21.352Z,74.77
2023-04-19T03:02:24.433Z,74.66
2023-04-19T03:03:25.434Z,74.77
2023-04-19T03:04:25.613Z,74.77
2023-04-19T03:08:20.415Z,74.77
2023-04-19T03:09:21.533Z,74.77
2023-04-19T03:10:21.658Z,74.87
2023-04-19T03:13:16.843Z,74.87
2023-04-19T03:14:18.001Z,74.77
2023-04-19T03:15:17.980Z,74.87
2023-04-19T03:16:18.086Z,74.87
2023-04-19T03:17:18.158Z,74.87
2023-04-19T03:18:18.190Z,74.77
2023-04-19T03:21:13.716Z,74.66
2023-04-19T03:22:14.746Z,74.77
2023-04-19T03:23:14.788Z,74.87
2023-04-19T03:24:15.128Z,74.97
2023-04-19T03:25:14.965Z,74.87
2023-04-19T03:26:15.034Z,74.73
2023-04-19T03:27:15.078Z,74.73
2023-04-19T03:28:15.181Z,74.63
2023-04-19T03:29:15.234Z,74.53
2023-04-19T03:30:15.351Z,74.53
2023-04-19T03:31:15.535Z,74.53
2023-04-19T03:32:15.471Z,74.43
2023-04-19T03:33:15.574Z,74.43
2023-04-19T03:34:15.816Z,74.32
2023-04-19T03:35:15.742Z,74.32
2023-04-19T03:38:30.918Z,74.22
2023-04-19T03:39:28.264Z,74.32
2023-04-19T03:42:39.853Z,74.43
2023-04-19T03:43:56.015Z,74.43
2023-04-19T03:45:59.546Z,74.56
2023-04-19T03:46:06.316Z,74.56
2023-04-19T03:48:37.238Z,74.32
2023-04-19T03:49:29.702Z,74.36
2023-04-19T03:50:30.876Z,74.46
2023-04-19T03:54:21.702Z,74.66
2023-04-19T03:55:18.527Z,74.66
2023-04-19T03:56:19.029Z,74.77
2023-04-19T03:57:19.656Z,74.87
2023-04-19T03:58:18.901Z,74.87
2023-04-19T03:59:21.009Z,74.77
2023-04-19T04:00:18.848Z,74.66
2023-04-19T04:01:19.141Z,74.66
2023-04-19T04:02:20.931Z,74.56
2023-04-19T04:03:20.907Z,74.43
2023-04-19T04:04:20.792Z,74.32
2023-04-19T04:05:20.474Z,74.32
2023-04-19T04:06:30.687Z,74.22
2023-04-19T04:09:36.298Z,74.11
2023-04-19T04:10:27.562Z,74.11
2023-04-19T04:11:26.981Z,74.26
2023-04-19T04:12:26.711Z,74.26
2023-04-19T04:14:44.820Z,74.22
2023-04-19T04:15:20.517Z,74.32
2023-04-19T04:15:51.424Z,74.22
2023-04-19T04:16:54.490Z,74.11
2023-04-19T04:19:16.161Z,74.02
2023-04-19T04:20:38.005Z,74.05
2023-04-19T04:29:05.672Z,74.80
2023-04-19T04:31:26.095Z,74.80
2023-04-19T04:31:42.321Z,75.01
2023-04-19T04:32:58.883Z,74.90
2023-04-19T04:33:37.145Z,74.77
2023-04-19T04:34:32.145Z,74.66
2023-04-19T04:35:33.990Z,74.66
2023-04-19T04:49:42.644Z,75.45
2023-04-19T04:50:43.564Z,75.35
2023-04-19T05:01:42.840Z,75.66
2023-04-19T05:02:43.167Z,75.66
2023-04-19T05:03:42.194Z,75.66
2023-04-19T05:10:29.033Z,75.56
2023-04-19T05:14:35.834Z,75.66
2023-04-19T05:17:07.084Z,75.66
2023-04-19T05:20:26.274Z,75.66
2023-04-19T05:30:49.232Z,75.86
2023-04-19T05:31:50.369Z,75.86
2023-04-19T05:32:50.530Z,75.86
2023-04-19T05:33:50.409Z,75.86
2023-04-19T05:34:50.494Z,75.76
2023-04-19T05:35:50.667Z,75.73
2023-04-19T05:36:50.693Z,75.62
2023-04-19T05:38:01.652Z,75.52
2023-04-19T05:38:50.797Z,75.52
2023-04-19T05:39:51.006Z,75.31
2023-04-19T05:51:02.532Z,75.07
2023-04-19T05:52:01.990Z,74.97
2023-04-19T06:00:43.249Z,75.01
2023-04-19T06:04:48.939Z,75.21
2023-04-19T06:05:52.017Z,75.31
2023-04-19T06:06:49.321Z,75.31
2023-04-19T06:07:55.312Z,75.31
2023-04-19T06:08:49.226Z,75.31
2023-04-19T06:09:49.447Z,75.18
2023-04-19T06:10:54.745Z,75.18
2023-04-19T06:11:51.207Z,75.07
2023-04-19T06:12:50.408Z,74.97
2023-04-19T06:13:49.635Z,74.87
2023-04-19T06:14:49.851Z,74.87
2023-04-19T06:15:49.969Z,74.77
2023-04-19T06:16:50.001Z,74.73
2023-04-19T06:17:50.064Z,74.63
2023-04-19T06:20:34.846Z,74.53
2023-04-19T06:21:11.609Z,74.43
2023-04-19T06:22:10.244Z,74.43
2023-04-19T06:23:10.184Z,74.53
2023-04-19T06:25:34.817Z,74.32
2023-04-19T06:33:19.546Z,74.77
2023-04-19T06:37:26.173Z,74.90
2023-04-19T06:45:24.916Z,75.42
2023-04-19T06:49:03.367Z,75.52
2023-04-19T06:54:01.090Z,75.73
2023-04-19T07:14:19.485Z,76.14
2023-04-19T07:15:20.177Z,76.14
2023-04-19T07:16:20.520Z,76.24
2023-04-19T07:20:00.298Z,75.93
2023-04-19T07:21:01.390Z,76.03
2023-04-19T07:22:01.614Z,76.03
2023-04-19T07:23:01.739Z,76.14
2023-04-19T07:24:01.605Z,75.99
2023-04-19T07:25:01.712Z,75.99
2023-04-19T07:26:01.769Z,75.89
2023-04-19T07:27:01.939Z,75.79
2023-04-19T07:28:01.916Z,75.65
2023-04-19T07:29:01.990Z,75.55
2023-04-19T07:30:02.085Z,75.45
2023-04-19T07:31:02.149Z,75.35
2023-04-19T07:32:02.217Z,75.35
2023-04-19T07:33:02.291Z,75.21
2023-04-19T07:34:02.353Z,75.21
2023-04-19T07:35:02.503Z,75.01
2023-04-19T07:36:02.535Z,74.90
2023-04-19T07:37:02.623Z,74.80
2023-04-19T07:38:02.920Z,74.69
2023-04-19T07:39:02.790Z,74.69
2023-04-19T07:40:02.936Z,74.69
2023-04-19T07:41:02.938Z,74.60
2023-04-19T07:42:03.006Z,74.46
2023-04-19T07:43:03.071Z,74.35
2023-04-19T07:44:03.188Z,74.26
2023-04-19T07:45:03.278Z,74.15
2023-04-19T07:46:03.381Z,74.05
2023-04-19T07:47:03.432Z,73.94
2023-04-19T07:48:03.508Z,73.74
2023-04-19T07:49:03.603Z,73.64
2023-04-19T07:50:03.678Z,73.54
2023-04-19T07:51:03.765Z,73.54
2023-04-19T07:52:03.806Z,73.54
2023-04-19T07:53:03.872Z,73.54
2023-04-19T07:54:03.999Z,73.54
2023-04-19T07:55:04.052Z,73.44
2023-04-19T07:56:04.164Z,73.54
2023-04-19T07:57:04.220Z,73.54
2023-04-19T07:58:04.294Z,73.50
2023-04-19T07:59:08.486Z,73.50
2023-04-19T08:00:04.474Z,73.40
2023-04-19T08:01:04.534Z,73.40
2023-04-19T08:02:04.679Z,73.30
2023-04-19T08:03:04.935Z,73.30
2023-04-19T08:04:05.265Z,73.40
2023-04-19T08:05:04.931Z,73.20
2023-04-19T08:06:04.897Z,73.10
2023-04-19T08:07:05.020Z,73.10
2023-04-19T08:08:05.085Z,73.10
2023-04-19T08:09:05.157Z,73.10
2023-04-19T08:10:05.494Z,72.99
2023-04-19T08:11:05.314Z,72.99
2023-04-19T08:12:05.457Z,72.99
2023-04-19T08:13:06.574Z,72.99
2023-04-19T08:14:26.023Z,72.99
2023-04-19T08:15:15.439Z,73.10
2023-04-19T08:16:40.223Z,73.06
2023-04-19T08:17:25.372Z,73.06
2023-04-19T08:18:05.956Z,72.96
2023-04-19T08:19:06.000Z,72.86
2023-04-19T08:20:06.073Z,72.75
2023-04-19T08:21:06.127Z,72.75
2023-04-19T08:22:06.253Z,72.65
2023-04-19T08:23:18.158Z,72.65
2023-04-19T08:24:06.410Z,72.65
2023-04-19T08:25:06.480Z,72.55
2023-04-19T08:26:06.588Z,72.55
2023-04-19T08:27:06.621Z,72.65
2023-04-19T08:28:06.713Z,72.55
2023-04-19T08:29:06.823Z,72.55
2023-04-19T08:30:06.949Z,72.55
2023-04-19T08:31:06.975Z,72.55
2023-04-19T08:32:07.083Z,72.55
2023-04-19T08:33:07.178Z,72.55
2023-04-19T08:34:07.199Z,72.45
2023-04-19T08:35:07.359Z,72.34
2023-04-19T08:40:51.827Z,72.48
2023-04-19T08:42:04.892Z,72.58
2023-04-19T08:42:52.960Z,72.69
2023-04-19T08:43:53.175Z,72.69
2023-04-19T08:57:09.467Z,73.03
2023-04-19T08:58:18.954Z,73.03
2023-04-19T08:59:18.507Z,73.03
2023-04-19T09:00:10.628Z,73.13
2023-04-19T09:01:17.071Z,73.03
2023-04-19T09:02:10.991Z,72.89
2023-04-19T09:03:12.059Z,72.89
2023-04-19T09:04:34.625Z,72.79
2023-04-19T09:05:11.346Z,72.79
2023-04-19T09:06:11.243Z,72.69
2023-04-19T09:07:11.259Z,72.69
2023-04-19T09:08:13.360Z,72.55
2023-04-19T09:09:16.950Z,72.45
2023-04-19T09:10:11.498Z,72.34
2023-04-19T09:11:11.605Z,72.14
2023-04-19T09:12:11.706Z,72.04
2023-04-19T09:13:11.705Z,71.94
2023-04-19T09:14:11.854Z,71.73
2023-04-19T09:15:11.907Z,71.73
2023-04-19T09:16:12.115Z,71.73
2023-04-19T09:20:02.454Z,71.83
2023-04-19T09:21:03.254Z,71.94
2023-04-19T09:22:03.566Z,72.04
2023-04-19T09:23:03.395Z,72.04
2023-04-19T09:24:03.820Z,72.24
2023-04-19T09:25:35.496Z,72.14
2023-04-19T09:26:19.140Z,71.94
2023-04-19T09:27:03.730Z,71.63
2023-04-19T09:28:03.804Z,71.29
2023-04-19T09:29:03.870Z,71.19
2023-04-19T09:30:03.931Z,71.29
2023-04-19T09:31:23.594Z,71.29
2023-04-19T09:32:04.183Z,71.29
2023-04-19T09:33:04.206Z,71.19
2023-04-19T09:34:04.249Z,71.09
2023-04-19T09:35:04.339Z,71.19
2023-04-19T09:36:04.457Z,71.19
2023-04-19T09:37:12.209Z,71.19
2023-04-19T09:38:06.697Z,71.29
2023-04-19T09:39:04.672Z,71.39
2023-04-19T09:40:04.798Z,71.50
2023-04-19T09:41:04.874Z,71.50
2023-04-19T09:42:04.953Z,71.59
2023-04-19T09:46:05.282Z,71.09
2023-04-19T09:47:05.332Z,71.09
2023-04-19T09:48:05.801Z,71.09
2023-04-19T09:49:17.174Z,70.98
2023-04-19T09:50:18.809Z,70.98
2023-04-19T09:51:09.400Z,70.98
2023-04-19T09:52:05.747Z,70.88
2023-04-19T09:53:05.801Z,70.88
2023-04-19T09:54:05.930Z,70.98
2023-04-19T09:55:17.742Z,71.09
2023-04-19T09:56:06.101Z,71.29
2023-04-19T09:57:06.153Z,71.39
2023-04-19T09:58:06.220Z,71.50
2023-04-19T09:59:20.041Z,71.50
2023-04-19T10:00:06.361Z,71.50
2023-04-19T10:01:14.761Z,71.59
2023-04-19T10:02:06.811Z,71.80
2023-04-19T10:03:06.722Z,71.91
2023-04-19T10:04:23.717Z,71.80
2023-04-19T10:07:30.052Z,71.70
2023-04-19T10:10:45.881Z,72.14
2023-04-19T10:11:48.026Z,72.24
2023-04-19T10:16:18.074Z,72.55
2023-04-19T10:17:07.251Z,72.65
2023-04-19T10:21:48.582Z,73.47
2023-04-19T10:23:47.730Z,73.68
2023-04-19T10:23:53.437Z,73.98
2023-04-19T10:24:52.237Z,73.88
2023-04-19T10:25:53.385Z,73.77
2023-04-19T10:26:53.427Z,73.77
2023-04-19T10:27:53.531Z,73.74
2023-04-19T10:28:53.592Z,73.94
2023-04-19T10:29:53.669Z,73.84
2023-04-19T10:32:25.724Z,73.94
2023-04-19T10:33:26.461Z,74.15
2023-04-19T10:34:26.522Z,74.35
2023-04-19T10:35:26.554Z,74.35
2023-04-19T10:38:03.003Z,74.25
2023-04-19T10:39:04.030Z,73.94
2023-04-19T10:41:37.304Z,74.56
2023-04-19T10:42:38.204Z,75.58
2023-04-19T10:43:38.314Z,76.26
2023-04-19T10:44:38.392Z,76.46
2023-04-19T10:45:38.481Z,75.75
2023-04-19T10:46:38.801Z,75.20
2023-04-19T10:47:38.619Z,74.79
2023-04-19T10:48:38.694Z,74.49
2023-04-19T10:49:38.817Z,74.38
2023-04-19T10:50:38.871Z,74.08
2023-04-19T10:51:39.176Z,73.67
2023-04-19T10:54:10.526Z,73.27
2023-04-19T10:55:11.534Z,73.47
2023-04-19T10:56:11.603Z,73.47
2023-04-19T10:57:11.970Z,74.08
2023-04-19T10:59:58.746Z,72.96
2023-04-19T11:00:59.847Z,73.57
2023-04-19T11:01:59.944Z,74.08
2023-04-19T11:03:00.049Z,73.88
2023-04-19T11:04:00.354Z,73.67
2023-04-19T11:05:00.105Z,73.64
2023-04-19T11:06:00.195Z,73.03
2023-04-19T11:07:00.288Z,72.72
2023-04-19T11:08:00.382Z,72.52
2023-04-19T11:09:00.503Z,72.41
2023-04-19T11:10:00.564Z,72.00
2023-04-19T11:11:00.655Z,72.00
2023-04-19T11:14:13.450Z,72.21
2023-04-19T11:15:21.286Z,72.00
2023-04-19T11:16:14.312Z,72.00
2023-04-19T11:17:14.355Z,72.00
2023-04-19T11:18:14.457Z,72.04
2023-04-19T11:19:14.735Z,71.73
2023-04-19T11:20:14.717Z,71.70
2023-04-19T11:21:14.680Z,71.80
2023-04-19T11:24:03.040Z,72.14
2023-04-19T11:25:15.667Z,72.04
2023-04-19T11:26:04.074Z,72.14
2023-04-19T11:27:04.068Z,72.24
2023-04-19T11:28:04.092Z,72.24
2023-04-19T11:29:04.228Z,72.14
2023-04-19T11:30:04.363Z,72.04
2023-04-19T11:56:41.939Z,72.96
2023-04-19T11:57:42.951Z,72.86
2023-04-19T11:58:42.937Z,72.75
2023-04-19T11:59:43.098Z,72.86
2023-04-19T12:00:43.066Z,72.75
2023-04-19T12:03:57.489Z,71.80
2023-04-19T12:04:58.212Z,71.91
2023-04-19T12:05:58.318Z,72.21
2023-04-19T12:08:38.461Z,72.31
2023-04-19T12:09:39.441Z,72.11
2023-04-19T12:10:39.448Z,72.31
2023-04-19T12:11:39.534Z,72.41
2023-04-19T12:12:39.586Z,72.52
2023-04-19T12:13:39.676Z,72.62
2023-04-19T12:14:39.837Z,72.62
2023-04-19T12:15:39.916Z,72.48
2023-04-19T12:16:40.043Z,72.38
2023-04-19T12:17:47.653Z,72.38
2023-04-19T12:18:40.103Z,72.38
2023-04-19T12:19:40.178Z,72.58
2023-04-19T12:20:40.272Z,72.45
2023-04-19T12:21:40.391Z,72.34
2023-04-19T12:22:40.458Z,72.24
2023-04-19T12:23:40.500Z,72.24
2023-04-19T12:24:40.582Z,72.34
2023-04-19T12:25:40.664Z,72.34
2023-04-19T12:26:40.784Z,72.24
2023-04-19T12:27:40.846Z,72.04
2023-04-19T12:28:40.955Z,71.94
2023-04-19T12:29:41.014Z,71.84
2023-04-19T12:30:41.115Z,71.70
2023-04-19T12:31:41.258Z,71.39
2023-04-19T12:32:41.290Z,71.19
2023-04-19T12:33:41.332Z,71.19
2023-04-19T12:34:41.418Z,71.39
2023-04-19T12:35:41.467Z,71.39
2023-04-19T12:36:41.593Z,71.29
2023-04-19T12:37:41.644Z,70.89
2023-04-19T12:38:41.736Z,70.78
2023-04-19T12:39:41.842Z,70.57
2023-04-19T12:40:41.910Z,70.68
2023-04-19T12:41:41.992Z,70.68
2023-04-19T12:42:42.088Z,70.68
2023-04-19T12:43:42.143Z,70.89
2023-04-19T12:44:42.234Z,70.98
2023-04-19T12:45:42.342Z,70.98
2023-04-19T12:46:42.450Z,70.89
2023-04-19T12:47:42.696Z,71.09
2023-04-19T12:48:42.582Z,71.19
2023-04-19T12:49:42.632Z,71.29
2023-04-19T12:50:42.746Z,71.29
2023-04-19T12:51:42.850Z,71.39
2023-04-19T12:52:42.889Z,71.50
2023-04-19T12:53:43.019Z,71.60
2023-04-19T12:54:43.068Z,71.50
2023-04-19T12:55:43.160Z,71.50
2023-04-19T12:56:43.237Z,71.91
2023-04-19T12:57:43.327Z,72.00
2023-04-19T12:58:43.443Z,72.41
2023-04-19T12:59:43.493Z,72.21
2023-04-19T13:00:43.591Z,72.11
2023-04-19T13:01:43.712Z,72.31
2023-04-19T13:02:43.945Z,72.41
2023-04-19T13:03:43.963Z,72.21
2023-04-19T13:04:43.978Z,72.17
2023-04-19T13:05:44.007Z,72.28
2023-04-19T13:06:44.113Z,72.28
2023-04-19T13:07:44.194Z,72.28
2023-04-19T13:08:46.964Z,72.17
2023-04-19T13:09:44.360Z,72.08
2023-04-19T13:10:44.466Z,72.08
2023-04-19T13:11:44.562Z,72.08
2023-04-19T13:12:44.631Z,71.87
2023-04-19T13:13:44.673Z,71.77
2023-04-19T13:14:44.769Z,71.67
2023-04-19T13:15:44.938Z,71.67
2023-04-19T13:16:44.969Z,71.67
2023-04-19T13:17:45.110Z,71.67
2023-04-19T13:18:45.166Z,71.46
2023-04-19T13:19:45.233Z,71.46
2023-04-19T13:20:45.317Z,71.36
2023-04-19T13:21:45.418Z,71.26
2023-04-19T13:22:45.579Z,71.26
2023-04-19T13:23:45.574Z,71.15
2023-04-19T13:24:45.651Z,71.26
2023-04-19T13:25:45.696Z,71.46
2023-04-19T13:26:45.797Z,71.15
2023-04-19T13:27:45.907Z,71.15
2023-04-19T13:28:45.996Z,71.06
2023-04-19T13:29:46.028Z,70.95
2023-04-19T13:30:46.135Z,70.95
2023-04-19T13:31:46.212Z,70.95
2023-04-19T13:32:46.334Z,70.95
2023-04-19T13:33:46.374Z,70.95
2023-04-19T13:34:46.410Z,71.15
2023-04-19T13:35:46.504Z,71.26
2023-04-19T13:36:46.607Z,71.26
2023-04-19T13:37:46.701Z,71.26
2023-04-19T13:38:46.778Z,71.26
2023-04-19T13:39:46.847Z,71.06
2023-04-19T13:40:46.950Z,71.06
2023-04-19T13:41:47.005Z,70.95
2023-04-19T13:42:47.100Z,70.95
2023-04-19T13:43:47.142Z,70.95
2023-04-19T13:44:48.779Z,70.95
2023-04-19T13:45:47.335Z,70.95
2023-04-19T13:46:47.495Z,70.85
2023-04-19T13:47:47.541Z,70.85
2023-04-19T13:48:47.600Z,70.95
2023-04-19T13:49:47.647Z,70.78
2023-04-19T13:50:49.163Z,70.48
2023-04-19T13:51:50.591Z,70.27
2023-04-19T13:52:47.927Z,70.07
2023-04-19T13:53:48.060Z,70.07
2023-04-19T13:54:48.050Z,70.17
2023-04-19T13:55:48.141Z,70.27
2023-04-19T13:56:50.612Z,70.27
2023-04-19T13:57:48.326Z,70.37
2023-04-19T13:58:48.388Z,70.57
2023-04-19T13:59:48.474Z,70.68
2023-04-19T14:00:48.633Z,70.78
2023-04-19T14:01:48.684Z,70.68
2023-04-19T14:02:50.174Z,70.68
2023-04-19T14:03:48.996Z,70.68
2023-04-19T14:04:48.891Z,70.57
2023-04-19T14:05:48.971Z,70.57
2023-04-19T14:06:49.071Z,70.57
2023-04-19T14:07:49.399Z,70.37
2023-04-19T14:08:51.285Z,70.37
2023-04-19T14:09:49.328Z,70.48
2023-04-19T14:10:49.364Z,70.48
2023-04-19T14:11:49.458Z,70.57
2023-04-19T14:12:49.571Z,70.48
2023-04-19T14:13:49.628Z,70.48
2023-04-19T14:14:49.713Z,70.27
2023-04-19T14:15:49.820Z,70.17
2023-04-19T14:16:50.133Z,70.17
2023-04-19T14:17:50.065Z,69.96
2023-04-19T14:18:50.042Z,69.86
2023-04-19T14:19:50.125Z,69.76
2023-04-19T14:20:50.230Z,69.86
2023-04-19T14:21:50.271Z,69.76
2023-04-19T14:22:50.394Z,69.66
2023-04-19T14:23:50.456Z,69.76
2023-04-19T14:24:50.551Z,69.86
2023-04-19T14:25:50.604Z,69.96
2023-04-19T14:27:06.962Z,69.96
2023-04-19T14:27:50.776Z,69.96
2023-04-19T14:28:50.830Z,70.07
2023-04-19T14:29:50.910Z,70.07
2023-04-19T14:30:51.022Z,70.07
2023-04-19T14:31:51.094Z,70.07
2023-04-19T14:32:51.436Z,70.17
2023-04-19T14:33:51.248Z,70.07
2023-04-19T14:34:51.384Z,69.96
2023-04-19T14:35:51.436Z,69.96
2023-04-19T14:36:51.723Z,69.96
2023-04-19T14:37:51.629Z,69.96
2023-04-19T14:38:51.696Z,69.96
2023-04-19T14:39:51.779Z,70.07
2023-04-19T14:40:51.893Z,70.07
2023-04-19T14:41:51.996Z,70.07
2023-04-19T14:42:52.053Z,70.07
2023-04-19T14:43:52.119Z,70.07
2023-04-19T14:44:52.267Z,69.96
2023-04-19T14:45:52.325Z,69.86
2023-04-19T14:46:52.368Z,69.76
2023-04-19T14:47:52.538Z,69.76
2023-04-19T14:48:52.593Z,69.76
2023-04-19T14:49:52.632Z,69.76
2023-04-19T14:50:52.738Z,69.86
2023-04-19T14:51:52.825Z,69.86
2023-04-19T14:52:52.937Z,69.76
2023-04-19T14:53:52.996Z,69.76
2023-04-19T14:54:53.087Z,69.76
2023-04-19T14:55:53.167Z,69.76
2023-04-19T14:56:53.304Z,69.76
2023-04-19T14:57:53.357Z,69.76
2023-04-19T14:58:53.423Z,69.79
2023-04-19T14:59:53.466Z,69.86
2023-04-19T15:00:53.602Z,69.90
2023-04-19T15:01:53.697Z,70.10
2023-04-19T15:02:53.824Z,70.17
2023-04-19T15:03:53.976Z,70.10
2023-04-19T15:04:54.118Z,70.07
2023-04-19T15:05:53.994Z,70.10
2023-04-19T15:06:54.019Z,70.10
2023-04-19T15:07:54.076Z,70.10
2023-04-19T15:08:54.145Z,70.20
2023-04-19T15:09:54.197Z,70.31
2023-04-19T15:10:54.284Z,70.20
2023-04-19T15:11:54.397Z,70.31
2023-04-19T15:12:54.449Z,70.31
2023-04-19T15:13:54.565Z,70.51
2023-04-19T15:14:54.610Z,70.51
2023-04-19T15:15:54.832Z,70.40
2023-04-19T15:16:54.793Z,69.79
2023-04-19T15:17:54.890Z,69.29
2023-04-19T15:18:54.904Z,68.57
2023-04-19T15:19:55.036Z,68.57
2023-04-19T15:20:55.084Z,68.57
2023-04-19T15:21:55.262Z,68.67
2023-04-19T15:22:55.271Z,68.77
2023-04-19T15:23:55.362Z,68.88
2023-04-19T15:24:55.530Z,68.98
2023-04-19T15:25:55.547Z,68.91
2023-04-19T15:26:55.644Z,68.70
2023-04-19T15:27:55.752Z,68.91
2023-04-19T15:28:55.814Z,68.91
2023-04-19T15:29:55.905Z,68.91
2023-04-19T15:30:56.035Z,68.80
2023-04-19T15:31:56.173Z,68.80
2023-04-19T15:32:56.264Z,68.91
2023-04-19T15:33:56.282Z,69.11
2023-04-19T15:34:56.346Z,69.21
2023-04-19T15:35:56.443Z,69.42
2023-04-19T15:36:56.571Z,69.52
2023-04-19T15:37:56.656Z,69.62
2023-04-19T15:38:56.694Z,69.73
2023-04-19T15:39:56.802Z,69.82
2023-04-19T15:40:56.880Z,69.93
2023-04-19T15:41:57.001Z,70.14
2023-04-19T15:42:57.013Z,70.14
2023-04-19T15:43:57.135Z,70.23
2023-04-19T15:44:57.170Z,70.44
2023-04-19T15:45:57.271Z,70.54
2023-04-19T15:46:57.439Z,70.64
2023-04-19T15:47:57.484Z,70.64
2023-04-19T15:48:57.495Z,70.75
2023-04-19T15:49:57.620Z,71.05
2023-04-19T15:50:57.660Z,71.26
2023-04-19T15:51:57.835Z,71.26
2023-04-19T15:52:57.823Z,71.26
2023-04-19T15:53:57.916Z,71.29
2023-04-19T15:54:58.024Z,71.29
2023-04-19T15:55:58.130Z,71.39
2023-04-19T15:56:58.216Z,71.50
2023-04-19T15:57:58.297Z,71.59
2023-04-19T15:58:58.387Z,71.80
2023-04-19T15:59:58.484Z,71.80
2023-04-19T16:00:58.620Z,71.91
2023-04-19T16:01:59.109Z,71.91
2023-04-19T16:03:10.265Z,72.00
2023-04-19T16:04:00.064Z,72.11
2023-04-19T16:06:54.001Z,72.45
2023-04-19T16:11:35.357Z,73.33
2023-04-19T16:12:36.570Z,73.44
2023-04-19T16:13:36.387Z,73.85
2023-04-19T16:17:14.367Z,73.88
2023-04-19T16:21:18.428Z,74.19
2023-04-19T16:37:33.613Z,75.96
2023-04-19T16:39:52.307Z,76.17
2023-04-19T16:46:36.690Z,76.62
2023-04-19T16:53:53.411Z,76.75
2023-04-19T17:06:55.940Z,77.17
2023-04-19T17:08:10.980Z,77.17
2023-04-19T17:08:56.868Z,77.37
2023-04-19T17:09:56.928Z,77.37
2023-04-19T17:12:23.935Z,77.68
2023-04-19T17:16:18.177Z,76.96
2023-04-19T17:17:19.177Z,76.86
2023-04-19T17:18:19.169Z,76.86
2023-04-19T17:19:19.329Z,76.75
2023-04-19T17:20:19.361Z,76.65
2023-04-19T17:21:19.460Z,76.55
2023-04-19T17:22:19.514Z,76.45
2023-04-19T17:23:19.621Z,76.34
2023-04-19T17:24:19.692Z,76.34
2023-04-19T17:25:21.736Z,76.24
2023-04-19T17:26:19.846Z,76.04
2023-04-19T17:27:19.925Z,75.93
2023-04-19T17:28:20.015Z,75.83
2023-04-19T17:29:20.157Z,75.97
2023-04-19T17:30:20.207Z,75.97
2023-04-19T17:31:20.415Z,75.97
2023-04-19T17:32:20.356Z,75.97
2023-04-19T17:33:20.451Z,75.87
2023-04-19T17:34:20.635Z,75.76
2023-04-19T17:35:20.666Z,75.76
2023-04-19T17:36:20.706Z,75.66
2023-04-19T17:37:20.799Z,75.56
2023-04-19T17:38:20.866Z,75.45
2023-04-19T17:39:21.065Z,75.45
2023-04-19T17:40:21.104Z,75.56
2023-04-19T17:41:21.196Z,75.45
2023-04-19T17:42:21.201Z,75.35
2023-04-19T17:43:21.253Z,75.35
2023-04-19T18:19:00.176Z,77.97
2023-04-19T18:20:01.252Z,78.07
2023-04-19T18:21:01.311Z,78.07
2023-04-19T18:22:02.957Z,77.76
2023-04-19T18:23:01.434Z,77.55
2023-04-19T18:26:38.546Z,76.83
2023-04-19T20:15:44.612Z,77.49
2023-04-19T20:16:45.456Z,77.39
2023-04-19T20:17:45.610Z,77.28
2023-04-19T20:18:45.490Z,77.28
2023-04-19T20:19:45.602Z,77.15
2023-04-19T20:20:45.705Z,77.04
2023-04-19T20:21:45.807Z,76.94
2023-04-19T20:22:45.944Z,76.94
2023-04-19T20:23:45.969Z,76.84
2023-04-19T20:24:46.048Z,76.70
2023-04-19T20:36:39.502Z,76.67
2023-04-19T20:37:41.138Z,76.67
2023-04-19T20:38:41.273Z,76.77
2023-04-19T20:39:40.356Z,76.87
2023-04-19T23:23:49.653Z,78.80
2023-04-19T23:24:50.470Z,78.80
2023-04-19T23:57:50.633Z,78.49
2023-04-19T23:58:51.741Z,78.39
2023-04-19T23:59:51.674Z,78.45
